METAR Data
IDs: Format: Raw Decoded Include TAF

Data at: 1040 UTC 26 Sep 2018

KTTF 261036Z AUTO 29008KT 10SM BKN015 BKN019 OVC025 19/18 A2986 RMK AO2 T01850178
KTTF 261016Z AUTO 27006KT 10SM SCT017 SCT025 19/18 A2984 RMK AO2 T01850178
KTTF 260956Z AUTO 28007KT 10SM SCT070 SCT080 19/18 A2983 RMK AO2 T01850180
KTTF 260936Z AUTO 27005KT 10SM SCT070 BKN080 19/18 A2983 RMK AO2 T01890183
KTTF 260915Z AUTO 27006KT 10SM SCT017 SCT043 19/19 A2983 RMK AO2 T01920186
KTTF 260855Z AUTO 27007KT 10SM SCT060 20/19 A2982 RMK AO2 T01950188
KTTF 260835Z AUTO 27007G19KT 10SM SCT045 20/19 A2982 RMK AO2 T01980192
KTTF 260815Z AUTO 26009KT 10SM SCT019 SCT026 BKN045 20/20 A2982 RMK AO2 T02000195
KTTF 260755Z AUTO 28008KT 10SM SCT006 BKN014 OVC025 20/19 A2982 RMK AO2 T02000194
KTTF 260735Z AUTO 29008KT 10SM SCT007 BKN010 OVC025 20/19 A2982 RMK AO2 T02000194
KTTF 260715Z AUTO 28004KT 10SM SCT014 SCT018 SCT025 19/19 A2983 RMK AO2 T01910185
KTTF 260655Z AUTO 30004KT 10SM SCT014 SCT021 19/18 A2983 RMK AO2 T01880182
KTTF 260635Z AUTO 00000KT 10SM CLR 19/18 A2982 RMK AO2 T01860180
KTTF 260615Z AUTO 00000KT 10SM SCT015 19/18 A2983 RMK AO2 T01900183
KTTF 260555Z AUTO 20008KT 10SM BKN015 BKN022 19/19 A2984 RMK AO2 60064 T01910185 10227 20190
KTTF 260539Z AUTO 27005KT 10SM SCT017 SCT022 19/19 A2984 RMK AO2 T01910185
KTTF 260519Z AUTO 21006KT 10SM SCT075 SCT090 SCT110 19/19 A2983 RMK AO2 T01900185
KTTF 260459Z AUTO 21007KT 10SM RA SCT018 BKN060 OVC095 19/19 A2984 RMK AO2 P0007 T01940187
KTTF 260439Z AUTO 26019G29KT 7SM +RA SCT012 BKN020 OVC034 22/21 A2988 RMK AO2 P0005 T02180212
KTTF 260419Z AUTO 21008KT 10SM SCT022 BKN029 OVC039 22/22 A2986 RMK AO2 T02230217
KTTF 260359Z AUTO 22008G14KT 10SM BKN029 BKN038 22/22 A2986 RMK AO2 T02220216 402430190
KTTF 260339Z AUTO 21008KT 10SM SCT029 22/21 A2985 RMK AO2 T02200214
KTTF 260319Z AUTO 21007KT 10SM SCT035 22/21 A2985 RMK AO2 T02200213
KTTF 260259Z AUTO 21008KT 10SM BKN029 BKN037 22/22 A2986 RMK AO2 60057 T02210215
KTTF 260239Z AUTO 22008KT 10SM SCT027 SCT090 22/21 A2986 RMK AO2 T02170211
KTTF 260219Z AUTO 23008KT 10SM SCT070 BKN090 22/21 A2986 RMK AO2 T02180212
KTTF 260158Z AUTO 23012G18KT 10SM SCT043 BKN060 OVC090 22/21 A2986 RMK AO2 P0002 T02200213
KTTF 260138Z AUTO 24013KT 10SM SCT010 BKN060 OVC070 22/21 A2985 RMK AO2 P0002 T02180212
KTTF 260118Z AUTO 23009G17KT 7SM -RA BKN010 BKN015 OVC060 22/21 A2984 RMK AO2 P0002 T02160210
KTTF 260058Z AUTO 26012G21KT 5SM RA SCT007 OVC013 22/21 A2984 RMK AO2 P0055 T02150208
KTTF 260038Z AUTO 26014G26KT 2SM +RA BKN011 OVC018 22/21 A2984 RMK AO2 P0046 T02200213
KTTF 260018Z AUTO 11007KT 10SM RA OVC024 23/22 A2980 RMK AO2 P0002 T02270221
KTTF 252357Z AUTO 13004KT 7SM -RA BKN028 BKN040 OVC050 23/22 A2981 RMK AO2 P0004 60004 T02250218 10243 20222
KTTF 252337Z AUTO 16004KT 7SM SCT045 BKN060 OVC070 23/22 A2984 RMK AO2 P0002 T02260220
KTTF 252317Z AUTO 17005KT 10SM -RA SCT046 BKN060 OVC070 23/22 A2985 RMK AO2 T02270221
KTTF 252257Z AUTO 20010KT 10SM -RA SCT018 BKN046 OVC060 23/23 A2986 RMK AO2 T02330227
KTTF 252237Z AUTO 19005KT 10SM SCT015 BKN032 OVC060 24/23 A2986 RMK AO2 T02350230
KTTF 252217Z AUTO 20008G15KT 10SM SCT015 BKN055 OVC120 24/23 A2987 RMK AO2 T02370231
KTTF 252157Z AUTO 20010G15KT 10SM SCT012 OVC120 24/23 A2987 RMK AO2 T02400234
KTTF 252137Z AUTO 19009KT 10SM BKN014 BKN120 24/23 A2985 RMK AO2 T02400234
KTTF 252117Z AUTO 20007KT 10SM BKN012 BKN017 24/23 A2985 RMK AO2 T02370231
KTTF 252056Z AUTO 19008G14KT 10SM BKN010 BKN017 BKN025 24/23 A2986 RMK AO2 T02360230
KTTF 252036Z AUTO 19009KT 10SM SCT010 BKN018 OVC033 23/23 A2988 RMK AO2 T02310225
KTTF 252016Z AUTO 19008KT 10SM SCT022 SCT027 BKN034 23/23 A2989 RMK AO2 T02310225
KTTF 251956Z AUTO 10SM SCT020 SCT028 BKN043 23/22 A2990 RMK AO2 T02270221
KTTF 251936Z AUTO 19010KT 10SM SCT016 SCT037 BKN070 23/22 A2991 RMK AO2 T02250218
KTTF 251916Z AUTO 00000KT 7SM RA SCT033 BKN043 OVC095 22/22 A2992 RMK AO2 T02230217
KTTF 251856Z AUTO 21007KT 7SM -RA SCT022 BKN028 OVC033 22/22 A2993 RMK AO2 T02220216
KTTF 251836Z AUTO 20010KT 10SM OVC020 23/22 A2993 RMK AO2 T02250220
KTTF 251816Z AUTO 20007KT 7SM SCT010 OVC020 23/22 A2994 RMK AO2 T02250219
KTTF 251756Z AUTO 20006KT 10SM OVC010 22/22 A2994 RMK AO2 60003 T02230217 10236 20205
KTTF 251736Z AUTO 21008KT 7SM OVC010 22/22 A2995 RMK AO2 T02230217
KTTF 251715Z AUTO 19010KT 10SM BKN012 OVC018 23/22 A2995 RMK AO2 T02290223
KTTF 251655Z AUTO 21010KT 10SM BKN014 OVC026 23/23 A2996 RMK AO2 T02320226
KTTF 251635Z AUTO 20014G23KT 10SM OVC012 24/23 A2995 RMK AO2 T02350230
KTTF 251615Z AUTO 20010G14KT 10SM BKN014 OVC020 23/23 A2995 RMK AO2 T02310225
KTTF 251555Z AUTO 21006KT 5SM BR BKN012 BKN021 OVC028 22/22 A2995 RMK AO2 T02210215
KTTF 251535Z AUTO 21006KT 10SM OVC012 22/22 A2995 RMK AO2 T02200215
KTTF 251515Z AUTO 21007KT 10SM OVC010 22/21 A2995 RMK AO2 T02200213
KTTF 251455Z AUTO 22006KT 10SM OVC010 22/21 A2996 RMK AO2 60003 T02160210
KTTF 251435Z AUTO 21007KT 10SM OVC008 22/21 A2996 RMK AO2 T02150209
KTTF 251415Z AUTO 20009KT 10SM OVC008 21/21 A2996 RMK AO2 T02120206
KTTF 251355Z AUTO 20010KT 7SM -RA BKN008 OVC017 21/21 A2996 RMK AO2 T02130207
KTTF 251340Z AUTO 19007KT 5SM BR OVC006 21/21 A2996 RMK AO2 T02100205
KTTF 251319Z AUTO 20007KT 4SM BR OVC006 21/20 A2996 RMK AO2 T02080202
KTTF 251259Z AUTO 19009G15KT 3SM RA OVC006 21/20 A2996 RMK AO2 P0003 T02060200
KTTF 251239Z AUTO 19011KT 4SM BR OVC006 21/20 A2996 RMK AO2 T02050200
KTTF 251219Z AUTO 20008KT 4SM BR OVC006 21/20 A2996 RMK AO2 T02050200
KTTF 251159Z AUTO 19011KT 5SM BR OVC006 21/20 A2996 RMK AO2 P0002 60006 70045 T02050198 10205 20190
KTTF 251139Z AUTO 19011KT 3SM +RA OVC006 20/20 A2996 RMK AO2 P0001 T02030197
KTTF 251119Z AUTO 20010KT 5SM -DZ OVC006 20/20 A2997 RMK AO2 P0001 T02020196
KTTF 251059Z AUTO 20008KT 7SM -RA OVC008 20/20 A2998 RMK AO2 T02020196
KTTF 251039Z AUTO 20007KT 10SM OVC008 20/20 A2997 RMK AO2 T02010195
KTTF 251018Z AUTO 20007KT 10SM OVC006 20/20 A2996 RMK AO2 T02010195
KTTF 250958Z AUTO 21006KT 10SM OVC006 20/20 A2997 RMK AO2 T02000195
KTTF 250938Z AUTO 21006KT 10SM OVC006 20/19 A2996 RMK AO2 T02000193
KTTF 250918Z AUTO 20006KT 10SM OVC006 20/19 A2996 RMK AO2 T01970191
KTTF 250858Z AUTO 20006KT 10SM OVC006 20/19 A2996 RMK AO2 P0001 60004 T01950190
KTTF 250838Z AUTO 20005KT 7SM OVC004 19/19 A2995 RMK AO2 P0001 T01930187
KTTF 250818Z AUTO 20006KT 4SM RA OVC004 19/19 A2995 RMK AO2 P0001 T01910185
KTTF 250758Z AUTO 19009KT 7SM OVC004 19/19 A2996 RMK AO2 P0001 T01900185
KTTF 250738Z AUTO 18010KT 3SM DZ OVC004 19/18 A2996 RMK AO2 P0001 T01900183
KTTF 250718Z AUTO 17009KT 130V190 4SM DZ OVC004 19/18 A2997 RMK AO2 T01900183
KTTF 250658Z AUTO 18010KT 4SM +DZ OVC004 19/18 A2998 RMK AO2 P0002 T01900183
KTTF 250637Z AUTO 18011KT 4SM RA OVC004 19/18 A2999 RMK AO2 P0001 T01900184
KTTF 250617Z AUTO 17010G15KT 4SM RA OVC004 19/19 A2999 RMK AO2 T01900185
KTTF 250557Z AUTO 18010KT 7SM -DZ OVC004 19/19 A2999 RMK AO2 P0001 60014 T01900185 10195 20188
KTTF 250537Z AUTO 17010G15KT 4SM DZ OVC006 19/19 A3000 RMK AO2 P0001 T01900185
KTTF 250517Z AUTO 16011KT 7SM OVC006 19/19 A3000 RMK AO2 P0001 T01910185
KTTF 250457Z AUTO 17013G18KT 5SM -DZ OVC006 19/19 A3001 RMK AO2 T01920186
KTTF 250437Z AUTO 17012G17KT 4SM -RA OVC006 19/19 A3001 RMK AO2 T01940188
KTTF 250417Z AUTO 16009KT 3SM -DZ OVC006 20/19 A3001 RMK AO2 T01950188
KTTF 250357Z AUTO 15010KT 10SM BKN006 OVC012 20/19 A3002 RMK AO2 T01950190 401950114
KTTF 250337Z AUTO 14008G15KT 110V180 10SM BKN006 OVC012 20/19 A3003 RMK AO2 T01950188
KTTF 250317Z AUTO 16010G14KT 110V190 10SM -DZ OVC006 19/19 A3003 RMK AO2 T01930187
KTTF 250256Z AUTO 17010KT 10SM OVC006 19/19 A3003 RMK AO2 P0001 60013 T01910186
KTTF 250236Z AUTO 15010G16KT 120V180 10SM -RA OVC006 19/19 A3004 RMK AO2 P0001 T01910185
KTTF 250216Z AUTO 16011G16KT 5SM RA OVC006 19/19 A3004 RMK AO2 P0001 T01900185
KTTF 250156Z AUTO 17010KT 4SM +RA OVC006 19/18 A3004 RMK AO2 P0010 T01900184
KTTF 250136Z AUTO 16010G15KT 7SM RA BKN009 OVC014 19/19 A3005 RMK AO2 P0002 T01910185
KTTF 250116Z AUTO 15010G15KT 10SM -RA BKN007 OVC014 19/19 A3004 RMK AO2 T01910185
KTTF 250056Z AUTO 13009KT 110V190 10SM -RA OVC007 19/19 A3004 RMK AO2 P0001 T01910185
KTTF 250036Z AUTO 13008G14KT 110V180 10SM RA OVC007 19/19 A3005 RMK AO2 T01900185
KTTF 250016Z AUTO 15008KT 120V180 10SM -RA OVC007 19/18 A3005 RMK AO2 T01900183
KTTF 242356Z AUTO 17009KT 120V190 10SM -RA OVC007 19/18 A3005 RMK AO2 P0009 60025 T01880182 10190 20181
KTTF 242336Z AUTO 15008KT 100V190 7SM RA OVC007 19/18 A3005 RMK AO2 P0008 T01870181
KTTF 242315Z AUTO 14008G15KT 100V180 10SM RA OVC007 19/18 A3006 RMK AO2 P0003 T01890182
KTTF 242255Z AUTO 14009KT 110V180 10SM RA OVC007 19/18 A3007 RMK AO2 P0006 T01880182